createdAt,value
2022-09-21T00:00:00.113Z,8.76
2022-09-21T00:01:00.086Z,8.75
2022-09-21T00:02:00.090Z,8.75
2022-09-21T00:03:00.035Z,8.76
2022-09-21T00:04:00.031Z,8.78
2022-09-21T00:04:59.990Z,8.79
2022-09-21T00:05:59.972Z,8.80
2022-09-21T00:06:59.964Z,8.76
2022-09-21T00:07:59.953Z,8.71
2022-09-21T00:08:59.942Z,8.70
2022-09-21T00:09:59.932Z,8.67
2022-09-21T00:10:59.926Z,8.64
2022-09-21T00:11:59.920Z,8.63
2022-09-21T00:12:59.922Z,8.61
2022-09-21T00:13:59.902Z,8.60
2022-09-21T00:14:59.882Z,8.57
2022-09-21T00:15:59.870Z,8.57
2022-09-21T00:16:59.872Z,8.58
2022-09-21T00:17:59.864Z,8.57
2022-09-21T00:18:59.842Z,8.58
2022-09-21T00:19:59.834Z,8.57
2022-09-21T00:20:59.820Z,8.54
2022-09-21T00:21:59.804Z,8.54
2022-09-21T00:22:59.801Z,8.50
2022-09-21T00:23:59.784Z,8.49
2022-09-21T00:24:59.775Z,8.47
2022-09-21T00:25:59.764Z,8.49
2022-09-21T00:26:59.756Z,8.47
2022-09-21T00:27:59.735Z,8.45
2022-09-21T00:28:59.741Z,8.45
2022-09-21T00:29:59.735Z,8.43
2022-09-21T00:30:59.713Z,8.42
2022-09-21T00:31:59.715Z,8.39
2022-09-21T00:32:59.694Z,8.37
2022-09-21T00:33:59.675Z,8.37
2022-09-21T00:34:59.687Z,8.34
2022-09-21T00:35:59.656Z,8.36
2022-09-21T00:36:59.646Z,8.37
2022-09-21T00:37:59.634Z,8.37
2022-09-21T00:38:59.655Z,8.39
2022-09-21T00:39:59.632Z,8.37
2022-09-21T00:40:59.616Z,8.36
2022-09-21T00:41:59.586Z,8.36
2022-09-21T00:42:59.586Z,8.34
2022-09-21T00:43:59.576Z,8.32
2022-09-21T00:44:59.576Z,8.29
2022-09-21T00:45:59.573Z,8.31
2022-09-21T00:46:59.554Z,8.29
2022-09-21T00:47:59.527Z,8.27
2022-09-21T00:48:59.537Z,8.24
2022-09-21T00:49:59.527Z,8.22
2022-09-21T00:50:59.497Z,8.24
2022-09-21T00:51:59.490Z,8.22
2022-09-21T00:52:59.487Z,8.24
2022-09-21T00:53:59.467Z,8.22
2022-09-21T00:54:59.478Z,8.22
2022-09-21T00:55:59.456Z,8.22
2022-09-21T00:56:59.449Z,8.22
2022-09-21T00:57:59.438Z,8.22
2022-09-21T00:58:59.417Z,8.20
2022-09-21T00:59:59.399Z,8.18
2022-09-21T01:00:59.442Z,8.18
2022-09-21T01:01:59.398Z,8.18
2022-09-21T01:02:59.398Z,8.17
2022-09-21T01:03:59.359Z,8.17
2022-09-21T01:04:59.349Z,8.14
2022-09-21T01:05:59.349Z,8.13
2022-09-21T01:06:59.338Z,8.13
2022-09-21T01:07:59.331Z,8.12
2022-09-21T01:08:59.313Z,8.10
2022-09-21T01:09:59.300Z,8.09
2022-09-21T01:10:59.292Z,8.07
2022-09-21T01:11:59.277Z,8.06
2022-09-21T01:12:59.269Z,8.04
2022-09-21T01:13:59.269Z,8.03
2022-09-21T01:14:59.260Z,8.02
2022-09-21T01:15:59.271Z,8.02
2022-09-21T01:16:59.242Z,8.00
2022-09-21T01:17:59.223Z,8.00
2022-09-21T01:18:59.201Z,7.96
2022-09-21T01:19:59.224Z,7.96
2022-09-21T01:20:59.180Z,7.95
2022-09-21T01:21:59.180Z,7.92
2022-09-21T01:22:59.162Z,7.92
2022-09-21T01:23:59.165Z,7.89
2022-09-21T01:24:59.142Z,7.88
2022-09-21T01:25:59.138Z,7.88
2022-09-21T01:26:59.132Z,7.84
2022-09-21T01:27:59.101Z,7.85
2022-09-21T01:28:59.092Z,7.85
2022-09-21T01:29:59.092Z,7.84
2022-09-21T01:30:59.085Z,7.82
2022-09-21T01:31:59.092Z,7.81
2022-09-21T01:32:59.052Z,7.81
2022-09-21T01:33:59.053Z,7.81
2022-09-21T01:34:59.042Z,7.81
2022-09-21T01:35:59.039Z,7.81
2022-09-21T01:36:59.021Z,7.79
2022-09-21T01:37:58.992Z,7.79
2022-09-21T01:39:20.047Z,7.77
2022-09-21T01:39:59.019Z,7.74
2022-09-21T01:40:58.987Z,7.73
2022-09-21T01:41:58.977Z,7.73
2022-09-21T01:42:58.967Z,7.71
2022-09-21T01:43:58.948Z,7.70
2022-09-21T01:44:58.951Z,7.69
2022-09-21T01:45:59.001Z,7.69
2022-09-21T01:46:58.928Z,7.66
2022-09-21T01:47:58.919Z,7.63
2022-09-21T01:48:58.907Z,7.66
2022-09-21T01:49:58.892Z,7.62
2022-09-21T01:50:58.887Z,7.60
2022-09-21T01:51:58.880Z,7.58
2022-09-21T01:52:58.888Z,7.58
2022-09-21T01:53:58.853Z,7.55
2022-09-21T01:54:58.848Z,7.55
2022-09-21T01:55:58.838Z,7.54
2022-09-21T01:56:58.830Z,7.54
2022-09-21T01:57:58.807Z,7.52
2022-09-21T01:58:58.798Z,7.52
2022-09-21T01:59:58.787Z,7.50
2022-09-21T02:00:58.834Z,7.50
2022-09-21T02:01:58.791Z,7.48
2022-09-21T02:02:58.759Z,7.47
2022-09-21T02:03:58.739Z,7.48
2022-09-21T02:04:58.740Z,7.47
2022-09-21T02:05:58.739Z,7.45
2022-09-21T02:06:58.720Z,7.42
2022-09-21T02:07:58.719Z,7.44
2022-09-21T02:08:58.695Z,7.42
2022-09-21T02:09:58.679Z,7.42
2022-09-21T02:10:58.670Z,7.42
2022-09-21T02:11:58.690Z,7.41
2022-09-21T02:12:58.651Z,7.41
2022-09-21T02:13:58.631Z,7.41
2022-09-21T02:14:58.639Z,7.41
2022-09-21T02:15:58.709Z,7.39
2022-09-21T02:16:58.610Z,7.37
2022-09-21T02:17:58.607Z,7.36
2022-09-21T02:18:58.603Z,7.37
2022-09-21T02:19:58.570Z,7.34
2022-09-21T02:20:58.571Z,7.33
2022-09-21T02:21:58.551Z,7.33
2022-09-21T02:22:58.542Z,7.30
2022-09-21T02:23:58.550Z,7.27
2022-09-21T02:24:58.529Z,7.26
2022-09-21T02:25:58.521Z,7.27
2022-09-21T02:26:58.519Z,7.27
2022-09-21T02:27:58.522Z,7.27
2022-09-21T02:28:58.485Z,7.24
2022-09-21T02:29:58.470Z,7.27
2022-09-21T02:30:58.486Z,7.32
2022-09-21T02:31:58.443Z,7.32
2022-09-21T02:32:58.440Z,7.30
2022-09-21T02:33:58.454Z,7.30
2022-09-21T02:34:58.420Z,7.29
2022-09-21T02:35:58.421Z,7.24
2022-09-21T02:36:58.393Z,7.21
2022-09-21T02:37:58.382Z,7.19
2022-09-21T02:38:58.392Z,7.18
2022-09-21T02:39:58.402Z,7.16
2022-09-21T02:40:58.376Z,7.15
2022-09-21T02:41:58.333Z,7.12
2022-09-21T02:42:58.333Z,7.12
2022-09-21T02:43:58.323Z,7.12
2022-09-21T02:44:58.315Z,7.08
2022-09-21T02:45:58.316Z,7.05
2022-09-21T02:46:58.303Z,7.08
2022-09-21T02:47:58.274Z,7.07
2022-09-21T02:48:58.272Z,7.07
2022-09-21T02:49:58.274Z,7.07
2022-09-21T02:50:58.244Z,7.07
2022-09-21T02:51:58.246Z,7.04
2022-09-21T02:52:58.227Z,7.05
2022-09-21T02:53:58.224Z,7.05
2022-09-21T02:54:58.214Z,7.04
2022-09-21T02:55:58.224Z,7.01
2022-09-21T02:56:58.186Z,7.01
2022-09-21T02:57:58.174Z,7.01
2022-09-21T02:58:58.165Z,6.99
2022-09-21T02:59:58.155Z,7.00
2022-09-21T03:00:58.207Z,6.99
2022-09-21T03:01:58.154Z,7.00
2022-09-21T03:02:58.125Z,6.99
2022-09-21T03:03:58.126Z,7.00
2022-09-21T03:04:58.096Z,6.99
2022-09-21T03:05:58.107Z,6.99
2022-09-21T03:06:58.076Z,6.99
2022-09-21T03:07:58.066Z,6.99
2022-09-21T03:08:58.076Z,7.00
2022-09-21T03:09:58.045Z,6.99
2022-09-21T03:10:58.037Z,6.99
2022-09-21T03:11:58.026Z,6.97
2022-09-21T03:12:58.017Z,6.99
2022-09-21T03:13:58.017Z,6.99
2022-09-21T03:14:57.997Z,6.97
2022-09-21T03:15:58.016Z,6.97
2022-09-21T03:16:57.977Z,6.96
2022-09-21T03:17:57.966Z,6.93
2022-09-21T03:18:57.966Z,6.94
2022-09-21T03:19:57.968Z,6.96
2022-09-21T03:20:57.948Z,6.94
2022-09-21T03:21:57.916Z,6.94
2022-09-21T03:22:57.907Z,6.93
2022-09-21T03:23:57.898Z,6.93
2022-09-21T03:24:57.898Z,6.93
2022-09-21T03:25:57.886Z,6.93
2022-09-21T03:26:57.888Z,6.90
2022-09-21T03:27:57.867Z,6.90
2022-09-21T03:28:57.958Z,6.89
2022-09-21T03:30:01.964Z,6.89
2022-09-21T03:30:57.860Z,6.86
2022-09-21T03:31:57.855Z,6.86
2022-09-21T03:32:57.798Z,6.86
2022-09-21T03:33:57.787Z,6.86
2022-09-21T03:34:57.778Z,6.83
2022-09-21T03:35:57.777Z,6.82
2022-09-21T03:36:57.758Z,6.82
2022-09-21T03:37:57.768Z,6.82
2022-09-21T03:38:57.788Z,6.82
2022-09-21T03:39:57.728Z,6.81
2022-09-21T03:40:57.721Z,6.81
2022-09-21T03:41:57.724Z,6.81
2022-09-21T03:42:57.700Z,6.79
2022-09-21T03:43:57.757Z,6.79
2022-09-21T03:44:57.706Z,6.79
2022-09-21T03:45:57.733Z,6.78
2022-09-21T03:46:57.657Z,6.76
2022-09-21T03:47:57.640Z,6.78
2022-09-21T03:48:57.648Z,6.79
2022-09-21T03:49:57.639Z,6.79
2022-09-21T03:50:57.618Z,6.78
2022-09-21T03:51:57.777Z,6.81
2022-09-21T03:52:57.588Z,6.79
2022-09-21T03:53:58.291Z,6.81
2022-09-21T03:54:57.630Z,6.79
2022-09-21T03:55:57.570Z,6.78
2022-09-21T03:56:57.550Z,6.78
2022-09-21T03:57:57.550Z,6.76
2022-09-21T03:58:57.767Z,6.76
2022-09-21T03:59:57.520Z,6.75
2022-09-21T04:00:57.511Z,6.73
2022-09-21T04:01:57.491Z,6.73
2022-09-21T04:02:57.558Z,6.72
2022-09-21T04:03:57.515Z,6.72
2022-09-21T04:04:57.480Z,6.71
2022-09-21T04:05:57.491Z,6.69
2022-09-21T04:06:57.460Z,6.69
2022-09-21T04:07:57.436Z,6.71
2022-09-21T04:08:57.430Z,6.72
2022-09-21T04:09:57.410Z,6.71
2022-09-21T04:10:57.414Z,6.69
2022-09-21T04:11:57.392Z,6.65
2022-09-21T04:12:57.371Z,6.68
2022-09-21T04:13:57.469Z,6.64
2022-09-21T04:14:57.352Z,6.65
2022-09-21T04:15:57.388Z,6.65
2022-09-21T04:16:57.341Z,6.64
2022-09-21T04:17:57.343Z,6.64
2022-09-21T04:18:57.321Z,6.63
2022-09-21T04:19:57.312Z,6.60
2022-09-21T04:20:57.319Z,6.60
2022-09-21T04:21:57.302Z,6.58
2022-09-21T04:22:57.292Z,6.58
2022-09-21T04:23:57.264Z,6.57
2022-09-21T04:24:57.243Z,6.57
2022-09-21T04:25:57.253Z,6.55
2022-09-21T04:26:57.242Z,6.54
2022-09-21T04:27:57.222Z,6.54
2022-09-21T04:28:57.243Z,6.53
2022-09-21T04:29:57.213Z,6.54
2022-09-21T04:30:57.249Z,6.51
2022-09-21T04:31:57.191Z,6.50
2022-09-21T04:32:57.194Z,6.51
2022-09-21T04:33:57.153Z,6.50
2022-09-21T04:34:58.246Z,6.48
2022-09-21T04:35:57.174Z,6.46
2022-09-21T04:36:57.843Z,6.45
2022-09-21T04:37:57.124Z,6.42
2022-09-21T04:38:57.774Z,6.42
2022-09-21T04:39:57.133Z,6.42
2022-09-21T04:40:57.084Z,6.40
2022-09-21T04:41:57.093Z,6.43
2022-09-21T04:42:57.063Z,6.42
2022-09-21T04:43:57.139Z,6.40
2022-09-21T04:44:57.053Z,6.39
2022-09-21T04:45:57.076Z,6.35
2022-09-21T04:46:57.014Z,6.35
2022-09-21T04:47:57.038Z,6.35
2022-09-21T04:48:57.008Z,6.35
2022-09-21T04:49:56.985Z,6.33
2022-09-21T04:50:57.004Z,6.33
2022-09-21T04:51:57.085Z,6.32
2022-09-21T04:52:56.955Z,6.32
2022-09-21T04:53:56.953Z,6.32
2022-09-21T04:54:56.935Z,6.30
2022-09-21T04:55:56.924Z,6.32
2022-09-21T04:56:56.914Z,6.30
2022-09-21T04:57:56.904Z,6.28
2022-09-21T04:58:56.905Z,6.28
2022-09-21T04:59:56.884Z,6.30
2022-09-21T05:00:56.885Z,6.27
2022-09-21T05:01:56.885Z,6.28
2022-09-21T05:02:56.899Z,6.28
2022-09-21T05:03:56.901Z,6.28
2022-09-21T05:04:56.825Z,6.27
2022-09-21T05:05:56.836Z,6.25
2022-09-21T05:06:56.806Z,6.27
2022-09-21T05:07:56.818Z,6.28
2022-09-21T05:08:56.806Z,6.28
2022-09-21T05:09:56.786Z,6.28
2022-09-21T05:10:56.782Z,6.30
2022-09-21T05:11:56.828Z,6.28
2022-09-21T05:12:56.739Z,6.30
2022-09-21T05:13:56.751Z,6.30
2022-09-21T05:14:56.728Z,6.28
2022-09-21T05:15:56.775Z,6.30
2022-09-21T05:16:56.704Z,6.30
2022-09-21T05:17:56.708Z,6.28
2022-09-21T05:18:56.676Z,6.30
2022-09-21T05:19:56.666Z,6.28
2022-09-21T05:20:56.657Z,6.28
2022-09-21T05:21:56.646Z,6.30
2022-09-21T05:22:56.644Z,6.30
2022-09-21T05:23:56.636Z,6.27
2022-09-21T05:24:56.607Z,6.27
2022-09-21T05:25:56.626Z,6.28
2022-09-21T05:26:56.887Z,6.30
2022-09-21T05:27:56.586Z,6.28
2022-09-21T05:28:56.569Z,6.25
2022-09-21T05:29:56.558Z,6.27
2022-09-21T05:31:16.829Z,6.25
2022-09-21T05:31:57.538Z,6.27
2022-09-21T05:32:56.558Z,6.27
2022-09-21T05:33:56.538Z,6.28
2022-09-21T05:34:56.510Z,6.27
2022-09-21T05:35:56.507Z,6.25
2022-09-21T05:36:56.487Z,6.27
2022-09-21T05:37:56.478Z,6.28
2022-09-21T05:38:56.489Z,6.30
2022-09-21T05:39:56.448Z,6.32
2022-09-21T05:40:56.439Z,6.32
2022-09-21T05:41:56.448Z,6.35
2022-09-21T05:42:56.419Z,6.35
2022-09-21T05:43:56.448Z,6.33
2022-09-21T05:44:56.399Z,6.33
2022-09-21T05:45:56.412Z,6.32
2022-09-21T05:46:56.567Z,6.35
2022-09-21T05:47:56.369Z,6.33
2022-09-21T05:48:56.378Z,6.35
2022-09-21T05:49:56.369Z,6.36
2022-09-21T05:50:56.330Z,6.36
2022-09-21T05:51:56.329Z,6.36
2022-09-21T05:52:56.309Z,6.36
2022-09-21T05:53:56.310Z,6.35
2022-09-21T05:54:56.310Z,6.35
2022-09-21T05:55:56.298Z,6.36
2022-09-21T05:56:56.281Z,6.38
2022-09-21T05:57:56.269Z,6.39
2022-09-21T05:58:56.271Z,6.38
2022-09-21T05:59:56.261Z,6.38
2022-09-21T06:00:56.284Z,6.39
2022-09-21T06:01:56.222Z,6.38
2022-09-21T06:02:56.210Z,6.40
2022-09-21T06:03:56.220Z,6.42
2022-09-21T06:04:56.191Z,6.42
2022-09-21T06:05:56.181Z,6.42
2022-09-21T06:06:56.201Z,6.45
2022-09-21T06:07:56.238Z,6.45
2022-09-21T06:08:56.140Z,6.45
2022-09-21T06:09:56.141Z,6.48
2022-09-21T06:10:56.141Z,6.48
2022-09-21T06:11:56.121Z,6.48
2022-09-21T06:12:56.131Z,6.46
2022-09-21T06:13:56.132Z,6.50
2022-09-21T06:14:56.081Z,6.51
2022-09-21T06:15:56.072Z,6.51
2022-09-21T06:16:56.109Z,6.53
2022-09-21T06:17:56.052Z,6.53
2022-09-21T06:18:56.062Z,6.53
2022-09-21T06:19:56.033Z,6.55
2022-09-21T06:20:56.013Z,6.54
2022-09-21T06:21:56.010Z,6.54
2022-09-21T06:22:55.992Z,6.54
2022-09-21T06:23:55.983Z,6.57
2022-09-21T06:24:55.999Z,6.58
2022-09-21T06:25:58.538Z,6.58
2022-09-21T06:26:55.952Z,6.61
2022-09-21T06:27:55.942Z,6.64
2022-09-21T06:28:55.930Z,6.68
2022-09-21T06:29:55.923Z,6.69
2022-09-21T06:30:55.978Z,6.72
2022-09-21T06:31:55.913Z,6.76
2022-09-21T06:32:55.884Z,6.78
2022-09-21T06:33:55.885Z,6.82
2022-09-21T06:34:55.912Z,6.83
2022-09-21T06:35:55.880Z,6.86
2022-09-21T06:36:55.846Z,6.87
2022-09-21T06:37:55.833Z,6.89
2022-09-21T06:38:55.823Z,6.90
2022-09-21T06:39:55.853Z,6.91
2022-09-21T06:40:55.803Z,6.93
2022-09-21T06:41:55.816Z,6.94
2022-09-21T06:42:55.789Z,6.97
2022-09-21T06:43:55.774Z,6.97
2022-09-21T06:44:55.775Z,6.99
2022-09-21T06:45:55.843Z,6.99
2022-09-21T06:46:55.743Z,7.00
2022-09-21T06:47:55.733Z,7.01
2022-09-21T06:48:55.743Z,7.04
2022-09-21T06:49:55.734Z,7.07
2022-09-21T06:50:55.694Z,7.07
2022-09-21T06:51:55.685Z,7.09
2022-09-21T06:52:55.674Z,7.12
2022-09-21T06:53:55.687Z,7.12
2022-09-21T06:54:55.654Z,7.14
2022-09-21T06:55:55.654Z,7.18
2022-09-21T06:56:59.363Z,7.19
2022-09-21T06:57:55.635Z,7.21
2022-09-21T06:58:55.605Z,7.23
2022-09-21T06:59:55.606Z,7.27
2022-09-21T07:00:55.665Z,7.29
2022-09-21T07:01:55.763Z,7.33
2022-09-21T07:02:55.574Z,7.32
2022-09-21T07:03:55.564Z,7.34
2022-09-21T07:04:55.545Z,7.36
2022-09-21T07:05:55.565Z,7.39
2022-09-21T07:06:55.536Z,7.41
2022-09-21T07:07:55.516Z,7.44
2022-09-21T07:10:15.929Z,7.50
2022-09-21T07:10:56.501Z,7.52
2022-09-21T07:11:55.476Z,7.52
2022-09-21T07:12:55.488Z,7.55
2022-09-21T07:13:55.521Z,7.58
2022-09-21T07:14:55.446Z,7.60
2022-09-21T07:15:55.427Z,7.60
2022-09-21T07:16:55.447Z,7.62
2022-09-21T07:18:05.581Z,7.66
2022-09-21T07:18:57.033Z,7.69
2022-09-21T07:19:55.386Z,7.73
2022-09-21T07:20:55.387Z,7.77
2022-09-21T07:21:55.396Z,7.79
2022-09-21T07:22:55.377Z,7.81
2022-09-21T07:23:55.337Z,7.84
2022-09-21T07:24:55.371Z,7.85
2022-09-21T07:25:55.327Z,7.86
2022-09-21T07:26:55.327Z,7.89
2022-09-21T07:27:55.316Z,7.89
2022-09-21T07:28:55.355Z,7.94
2022-09-21T07:29:55.298Z,7.96
2022-09-21T07:30:55.278Z,8.02
2022-09-21T07:31:55.307Z,8.04
2022-09-21T07:32:55.258Z,8.04
2022-09-21T07:33:55.239Z,8.07
2022-09-21T07:34:55.256Z,8.09
2022-09-21T07:35:55.239Z,8.13
2022-09-21T07:36:55.208Z,8.17
2022-09-21T07:37:55.198Z,8.22
2022-09-21T07:38:55.190Z,8.27
2022-09-21T07:39:55.195Z,8.31
2022-09-21T07:40:55.199Z,8.36
2022-09-21T07:41:55.160Z,8.39
2022-09-21T07:42:55.149Z,8.39
2022-09-21T07:43:55.194Z,8.42
2022-09-21T07:45:03.930Z,8.43
2022-09-21T07:45:56.239Z,8.46
2022-09-21T07:46:55.128Z,8.46
2022-09-21T07:47:55.109Z,8.49
2022-09-21T07:48:55.090Z,8.50
2022-09-21T07:49:55.100Z,8.55
2022-09-21T07:50:55.062Z,8.60
2022-09-21T07:51:55.070Z,8.61
2022-09-21T07:52:55.070Z,8.64
2022-09-21T07:53:55.075Z,8.67
2022-09-21T07:54:55.020Z,8.70
2022-09-21T07:55:55.001Z,8.70
2022-09-21T07:56:55.028Z,8.76
2022-09-21T07:57:54.980Z,8.78
2022-09-21T07:58:55.031Z,8.82
2022-09-21T07:59:54.971Z,8.83
2022-09-21T08:00:54.982Z,8.86
2022-09-21T08:01:55.007Z,8.93
2022-09-21T08:02:54.931Z,8.94
2022-09-21T08:03:54.931Z,8.97
2022-09-21T08:04:54.931Z,9.00
2022-09-21T08:05:54.901Z,9.01
2022-09-21T08:06:54.891Z,9.03
2022-09-21T08:07:54.881Z,9.06
2022-09-21T08:08:57.681Z,9.08
2022-09-21T08:09:54.871Z,9.13
2022-09-21T08:10:54.851Z,9.16
2022-09-21T08:11:54.841Z,9.19
2022-09-21T08:12:54.902Z,9.24
2022-09-21T08:13:54.926Z,9.30
2022-09-21T08:14:54.812Z,9.32
2022-09-21T08:15:54.821Z,9.35
2022-09-21T08:16:54.906Z,9.42
2022-09-21T08:17:54.811Z,9.44
2022-09-21T08:18:54.762Z,9.49
2022-09-21T08:19:54.754Z,9.52
2022-09-21T08:20:54.746Z,9.56
2022-09-21T08:21:57.631Z,9.60
2022-09-21T08:22:54.724Z,9.63
2022-09-21T08:23:54.764Z,9.68
2022-09-21T08:24:54.694Z,9.71
2022-09-21T08:25:54.704Z,9.77
2022-09-21T08:26:54.680Z,9.81
2022-09-21T08:27:54.687Z,9.85
2022-09-21T08:28:54.766Z,9.86
2022-09-21T08:29:54.653Z,9.91
2022-09-21T08:30:54.638Z,9.92
2022-09-21T08:31:54.702Z,9.99
2022-09-21T08:32:54.680Z,9.99
2022-09-21T08:33:54.634Z,10.06
2022-09-21T08:34:54.703Z,10.10
2022-09-21T08:35:54.584Z,10.13
2022-09-21T08:36:55.701Z,10.16
2022-09-21T08:37:54.565Z,10.17
2022-09-21T08:38:54.554Z,10.22
2022-09-21T08:39:54.564Z,10.24
2022-09-21T08:40:54.548Z,10.28
2022-09-21T08:41:54.525Z,10.29
2022-09-21T08:42:54.505Z,10.31
2022-09-21T08:43:54.502Z,10.34
2022-09-21T08:44:54.505Z,10.38
2022-09-21T08:45:54.477Z,10.42
2022-09-21T08:46:54.558Z,10.44
2022-09-21T08:47:54.460Z,10.47
2022-09-21T08:48:54.445Z,10.51
2022-09-21T08:49:54.435Z,10.51
2022-09-21T08:50:54.416Z,10.55
2022-09-21T08:51:54.437Z,10.57
2022-09-21T08:52:54.396Z,10.62
2022-09-21T08:53:54.397Z,10.66
2022-09-21T08:54:54.678Z,10.70
2022-09-21T08:55:54.378Z,10.75
2022-09-21T08:57:05.045Z,10.80
2022-09-21T08:57:55.357Z,10.84
2022-09-21T08:58:54.358Z,10.91
2022-09-21T08:59:54.337Z,10.94
2022-09-21T09:00:54.367Z,10.99
2022-09-21T09:01:54.346Z,11.05
2022-09-21T09:02:54.317Z,11.08
2022-09-21T09:03:54.332Z,11.09
2022-09-21T09:04:54.277Z,11.12
2022-09-21T09:05:54.269Z,11.17
2022-09-21T09:06:54.248Z,11.20
2022-09-21T09:07:54.249Z,11.21
2022-09-21T09:08:54.249Z,11.26
2022-09-21T09:09:54.220Z,11.27
2022-09-21T09:10:54.209Z,11.27
2022-09-21T09:11:54.200Z,11.28
2022-09-21T09:12:54.219Z,11.30
2022-09-21T09:13:54.190Z,11.31
2022-09-21T09:14:54.170Z,11.36
2022-09-21T09:15:54.189Z,11.41
2022-09-21T09:16:54.150Z,11.44
2022-09-21T09:17:54.139Z,11.46
2022-09-21T09:18:54.120Z,11.48
2022-09-21T09:19:54.140Z,11.53
2022-09-21T09:20:54.110Z,11.56
2022-09-21T09:21:54.100Z,11.60
2022-09-21T09:22:54.080Z,11.62
2022-09-21T09:23:54.120Z,11.67
2022-09-21T09:24:54.081Z,11.69
2022-09-21T09:25:54.073Z,11.72
2022-09-21T09:26:54.032Z,11.75
2022-09-21T09:27:54.048Z,11.78
2022-09-21T09:28:54.023Z,11.81
2022-09-21T09:29:54.010Z,11.85
2022-09-21T09:30:54.012Z,11.93
2022-09-21T09:31:53.998Z,11.97
2022-09-21T09:32:53.991Z,12.01
2022-09-21T09:33:53.972Z,12.05
2022-09-21T09:34:54.000Z,12.07
2022-09-21T09:35:53.952Z,12.11
2022-09-21T09:36:58.917Z,12.13
2022-09-21T09:37:54.925Z,12.16
2022-09-21T09:38:53.912Z,12.22
2022-09-21T09:39:53.904Z,12.25
2022-09-21T09:40:53.904Z,12.30
2022-09-21T09:41:53.883Z,12.33
2022-09-21T09:42:53.883Z,12.38
2022-09-21T09:43:53.885Z,12.43
2022-09-21T09:44:53.853Z,12.49
2022-09-21T09:45:53.843Z,12.54
2022-09-21T09:46:53.874Z,12.61
2022-09-21T09:47:53.834Z,12.62
2022-09-21T09:48:54.430Z,12.66
2022-09-21T09:49:53.795Z,12.67
2022-09-21T09:50:53.802Z,12.71
2022-09-21T09:51:53.781Z,12.76
2022-09-21T09:52:53.763Z,12.81
2022-09-21T09:53:53.754Z,12.87
2022-09-21T09:54:53.756Z,12.91
2022-09-21T09:55:53.735Z,12.94
2022-09-21T09:56:53.717Z,12.98
2022-09-21T09:57:53.725Z,13.03
2022-09-21T09:58:53.701Z,13.07
2022-09-21T09:59:54.694Z,13.14
2022-09-21T10:00:53.675Z,13.19
2022-09-21T10:01:53.709Z,13.21
2022-09-21T10:02:53.676Z,13.27
2022-09-21T10:03:53.685Z,13.31
2022-09-21T10:04:53.627Z,13.32
2022-09-21T10:05:53.631Z,13.35
2022-09-21T10:06:53.646Z,13.39
2022-09-21T10:07:53.610Z,13.39
2022-09-21T10:08:53.607Z,13.39
2022-09-21T10:09:53.617Z,13.41
2022-09-21T10:10:53.568Z,13.47
2022-09-21T10:11:53.567Z,13.51
2022-09-21T10:12:53.548Z,13.55
2022-09-21T10:13:53.538Z,13.62
2022-09-21T10:14:53.528Z,13.65
2022-09-21T10:15:53.584Z,13.71
2022-09-21T10:16:53.506Z,13.76
2022-09-21T10:17:53.501Z,13.83
2022-09-21T10:18:53.484Z,13.90
2022-09-21T10:19:53.488Z,13.98
2022-09-21T10:20:53.459Z,14.05
2022-09-21T10:21:53.693Z,14.11
2022-09-21T10:22:53.462Z,14.20
2022-09-21T10:23:53.450Z,14.34
2022-09-21T10:24:53.411Z,14.44
2022-09-21T10:25:53.409Z,14.48
2022-09-21T10:26:53.409Z,14.56
2022-09-21T10:27:53.399Z,14.54
2022-09-21T10:28:53.378Z,14.53
2022-09-21T10:29:53.371Z,14.57
2022-09-21T10:30:53.434Z,14.57
2022-09-21T10:31:53.381Z,14.59
2022-09-21T10:32:53.339Z,14.59
2022-09-21T10:33:53.326Z,14.59
2022-09-21T10:34:53.311Z,14.60
2022-09-21T10:35:53.301Z,14.63
2022-09-21T10:36:53.291Z,14.72
2022-09-21T10:37:53.301Z,14.80
2022-09-21T10:38:53.271Z,14.91
2022-09-21T10:39:53.263Z,15.01
2022-09-21T10:40:53.253Z,15.11
2022-09-21T10:41:53.269Z,15.18
2022-09-21T10:42:53.223Z,15.25
2022-09-21T10:43:53.227Z,15.27
2022-09-21T10:44:53.203Z,15.28
2022-09-21T10:45:53.233Z,15.33
2022-09-21T10:46:53.268Z,15.34
2022-09-21T10:47:53.214Z,15.35
2022-09-21T10:48:53.163Z,15.38
2022-09-21T10:49:53.163Z,15.41
2022-09-21T10:50:53.159Z,15.49
2022-09-21T10:51:53.134Z,15.55
2022-09-21T10:52:53.123Z,15.56
2022-09-21T10:53:54.453Z,15.62
2022-09-21T10:54:53.104Z,15.70
2022-09-21T10:56:11.936Z,15.74
2022-09-21T10:56:54.098Z,15.77
2022-09-21T10:57:53.075Z,15.81
2022-09-21T10:58:53.066Z,15.89
2022-09-21T10:59:53.056Z,15.96
2022-09-21T11:00:53.054Z,16.01
2022-09-21T11:01:53.135Z,16.06
2022-09-21T11:02:53.077Z,16.13
2022-09-21T11:03:53.006Z,16.18
2022-09-21T11:04:52.996Z,16.23
2022-09-21T11:05:53.028Z,16.26
2022-09-21T11:06:53.072Z,16.32
2022-09-21T11:07:52.978Z,16.37
2022-09-21T11:08:52.951Z,16.42
2022-09-21T11:09:52.948Z,16.47
2022-09-21T11:10:52.928Z,16.54
2022-09-21T11:11:52.919Z,16.57
2022-09-21T11:12:52.930Z,16.62
2022-09-21T11:13:52.935Z,16.63
2022-09-21T11:14:52.890Z,16.69
2022-09-21T11:15:52.985Z,16.77
2022-09-21T11:16:52.867Z,16.80
2022-09-21T11:17:52.880Z,16.81
2022-09-21T11:18:52.860Z,16.84
2022-09-21T11:19:52.850Z,16.88
2022-09-21T11:20:52.830Z,16.92
2022-09-21T11:21:52.831Z,16.99
2022-09-21T11:22:57.229Z,16.99
2022-09-21T11:23:52.791Z,17.02
2022-09-21T11:24:53.494Z,17.05
2022-09-21T11:25:52.821Z,17.09
2022-09-21T11:26:52.812Z,17.14
2022-09-21T11:27:52.751Z,17.18
2022-09-21T11:28:52.752Z,17.17
2022-09-21T11:29:52.722Z,17.15
2022-09-21T11:30:52.771Z,17.25
2022-09-21T11:31:52.712Z,17.33
2022-09-21T11:32:52.692Z,17.38
2022-09-21T11:33:52.703Z,17.39
2022-09-21T11:34:52.672Z,17.42
2022-09-21T11:35:52.704Z,17.58
2022-09-21T11:36:52.654Z,17.73
2022-09-21T11:37:52.654Z,17.86
2022-09-21T11:38:52.654Z,17.95
2022-09-21T11:39:52.659Z,18.04
2022-09-21T11:40:52.604Z,18.09
2022-09-21T11:41:52.604Z,18.14
2022-09-21T11:42:52.605Z,18.20
2022-09-21T11:43:52.580Z,18.31
2022-09-21T11:44:52.565Z,18.42
2022-09-21T11:45:52.607Z,18.51
2022-09-21T11:46:52.557Z,18.68
2022-09-21T11:47:52.556Z,18.83
2022-09-21T11:48:52.536Z,18.96
2022-09-21T11:50:03.047Z,19.15
2022-09-21T11:50:53.505Z,19.30
2022-09-21T11:51:55.953Z,19.43
2022-09-21T11:52:53.497Z,19.60
2022-09-21T11:53:52.476Z,19.71
2022-09-21T11:54:52.461Z,19.85
2022-09-21T11:55:52.449Z,19.98
2022-09-21T11:56:52.438Z,20.23
2022-09-21T11:57:54.865Z,20.50
2022-09-21T11:58:53.143Z,20.82
2022-09-21T11:59:52.407Z,21.13
2022-09-21T12:00:52.389Z,21.45
2022-09-21T12:01:52.432Z,21.46
2022-09-21T12:02:52.676Z,22.11
2022-09-21T12:03:52.411Z,21.83
2022-09-21T12:04:52.360Z,21.67
2022-09-21T12:05:52.341Z,22.44
2022-09-21T12:06:52.344Z,22.17
2022-09-21T12:07:52.401Z,23.81
2022-09-21T12:08:52.302Z,25.48
2022-09-21T12:09:52.305Z,27.40
2022-09-21T12:10:52.291Z,28.89
2022-09-21T12:11:52.294Z,30.15
2022-09-21T12:12:52.264Z,31.32
2022-09-21T12:13:52.266Z,32.41
2022-09-21T12:14:52.298Z,33.56
2022-09-21T12:15:52.254Z,34.58
2022-09-21T12:16:52.273Z,35.61
2022-09-21T12:17:52.237Z,36.56
2022-09-21T12:18:52.206Z,37.47
2022-09-21T12:19:52.196Z,38.25
2022-09-21T12:20:52.198Z,38.77
2022-09-21T12:21:52.178Z,39.36
2022-09-21T12:22:52.158Z,39.76
2022-09-21T12:23:52.207Z,40.42
2022-09-21T12:24:52.159Z,40.92
2022-09-21T12:25:52.169Z,40.58
2022-09-21T12:26:52.120Z,41.12
2022-09-21T12:27:52.110Z,41.38
2022-09-21T12:28:52.100Z,41.62
2022-09-21T12:29:52.118Z,41.93
2022-09-21T12:30:52.120Z,42.17
2022-09-21T12:31:52.092Z,42.52
2022-09-21T12:32:52.062Z,42.83
2022-09-21T12:33:52.082Z,42.95
2022-09-21T12:34:52.063Z,41.62
2022-09-21T12:36:52.034Z,42.45
2022-09-21T12:37:52.015Z,43.01
2022-09-21T12:38:52.016Z,42.50
2022-09-21T12:39:52.015Z,43.05
2022-09-21T12:40:51.987Z,43.70
2022-09-21T12:41:51.997Z,43.53
2022-09-21T12:42:51.994Z,43.96
2022-09-21T12:43:51.964Z,44.61
2022-09-21T12:44:52.215Z,44.89
2022-09-21T12:45:52.157Z,45.10
2022-09-21T12:46:53.596Z,45.32
2022-09-21T12:47:51.929Z,45.48
2022-09-21T12:48:51.919Z,45.61
2022-09-21T12:49:51.900Z,45.85
2022-09-21T12:50:51.940Z,45.45
2022-09-21T12:51:51.891Z,45.34
2022-09-21T12:52:51.890Z,45.08
2022-09-21T12:53:51.871Z,45.31
2022-09-21T12:54:51.875Z,45.57
2022-09-21T12:55:51.883Z,45.63
2022-09-21T12:56:51.852Z,46.02
2022-09-21T12:58:14.012Z,43.68
2022-09-21T12:58:52.833Z,42.83
2022-09-21T12:59:51.825Z,43.98
2022-09-21T13:00:51.964Z,42.99
2022-09-21T13:01:56.883Z,43.16
2022-09-21T13:02:52.827Z,43.36
2022-09-21T13:03:51.788Z,43.79
2022-09-21T13:04:51.785Z,44.18
2022-09-21T13:05:51.766Z,44.66
2022-09-21T13:06:51.766Z,45.07
2022-09-21T13:07:51.784Z,45.32
2022-09-21T13:08:51.749Z,45.56
2022-09-21T13:09:51.737Z,45.54
2022-09-21T13:10:55.065Z,42.49